sensor_id;sensor_type;location;lat;lon;timestamp;temperature;humidity
75500;DHT22;64076;51.466;7.260;2023-04-03T05:26:28;19.90;32.40
75500;DHT22;64076;51.466;7.260;2023-04-03T05:28:53;18.90;30.50
75500;DHT22;64076;51.466;7.260;2023-04-03T05:31:19;19.10;30.20
75500;DHT22;64076;51.466;7.260;2023-04-03T05:33:44;19.50;29.80
75500;DHT22;64076;51.466;7.260;2023-04-03T05:36:11;19.90;29.40
75500;DHT22;64076;51.466;7.260;2023-04-03T05:38:38;20.20;29.00
75500;DHT22;64076;51.466;7.260;2023-04-03T05:41:03;20.40;28.80
75500;DHT22;64076;51.466;7.260;2023-04-03T05:43:29;20.50;28.70
75500;DHT22;64076;51.466;7.260;2023-04-03T05:45:55;20.80;28.50
75500;DHT22;64076;51.466;7.260;2023-04-03T05:48:20;21.00;28.20
75500;DHT22;64076;51.466;7.260;2023-04-03T05:50:46;21.30;27.90
75500;DHT22;64076;51.466;7.260;2023-04-03T05:53:32;21.70;27.60
75500;DHT22;64076;51.466;7.260;2023-04-03T05:55:58;22.10;27.20
75500;DHT22;64076;51.466;7.260;2023-04-03T05:58:24;22.30;27.00
75500;DHT22;64076;51.466;7.260;2023-04-03T06:00:49;22.50;26.80
75500;DHT22;64076;51.466;7.260;2023-04-03T06:03:15;22.60;26.70
75500;DHT22;64076;51.466;7.260;2023-04-03T06:05:42;22.60;26.70
75500;DHT22;64076;51.466;7.260;2023-04-03T06:08:07;22.50;26.60
75500;DHT22;64076;51.466;7.260;2023-04-03T06:10:34;22.40;26.80
75500;DHT22;64076;51.466;7.260;2023-04-03T06:13:00;22.20;26.80
75500;DHT22;64076;51.466;7.260;2023-04-03T06:15:26;22.10;26.90
75500;DHT22;64076;51.466;7.260;2023-04-03T06:17:52;22.10;26.90
75500;DHT22;64076;51.466;7.260;2023-04-03T06:20:18;22.00;26.90
75500;DHT22;64076;51.466;7.260;2023-04-03T06:22:43;21.90;27.00
75500;DHT22;64076;51.466;7.260;2023-04-03T06:25:09;21.90;27.00
75500;DHT22;64076;51.466;7.260;2023-04-03T06:27:35;21.90;27.00
75500;DHT22;64076;51.466;7.260;2023-04-03T06:30:01;21.90;27.00
75500;DHT22;64076;51.466;7.260;2023-04-03T06:32:27;21.90;27.00
75500;DHT22;64076;51.466;7.260;2023-04-03T06:34:53;22.00;27.00
75500;DHT22;64076;51.466;7.260;2023-04-03T06:37:21;22.10;26.80
75500;DHT22;64076;51.466;7.260;2023-04-03T06:39:47;22.10;26.80
75500;DHT22;64076;51.466;7.260;2023-04-03T06:42:13;22.00;26.80
75500;DHT22;64076;51.466;7.260;2023-04-03T06:44:38;22.00;26.90
75500;DHT22;64076;51.466;7.260;2023-04-03T06:47:04;22.10;26.80
75500;DHT22;64076;51.466;7.260;2023-04-03T06:49:30;22.10;26.90
75500;DHT22;64076;51.466;7.260;2023-04-03T06:51:56;22.10;26.90
75500;DHT22;64076;51.466;7.260;2023-04-03T06:54:22;22.10;26.80
75500;DHT22;64076;51.466;7.260;2023-04-03T06:56:48;22.00;26.90
75500;DHT22;64076;51.466;7.260;2023-04-03T06:59:15;22.00;26.80
75500;DHT22;64076;51.466;7.260;2023-04-03T07:01:40;21.90;26.90
75500;DHT22;64076;51.466;7.260;2023-04-03T07:04:07;22.00;26.90
75500;DHT22;64076;51.466;7.260;2023-04-03T07:06:33;22.00;26.90
75500;DHT22;64076;51.466;7.260;2023-04-03T07:08:59;22.00;26.80
75500;DHT22;64076;51.466;7.260;2023-04-03T07:11:25;22.00;26.80
75500;DHT22;64076;51.466;7.260;2023-04-03T07:13:51;22.00;26.70
75500;DHT22;64076;51.466;7.260;2023-04-03T07:16:17;21.90;26.80
75500;DHT22;64076;51.466;7.260;2023-04-03T07:18:42;21.90;26.80
75500;DHT22;64076;51.466;7.260;2023-04-03T07:21:08;21.90;26.80
75500;DHT22;64076;51.466;7.260;2023-04-03T07:23:33;22.00;26.80
75500;DHT22;64076;51.466;7.260;2023-04-03T07:25:59;21.90;26.70
75500;DHT22;64076;51.466;7.260;2023-04-03T07:28:25;22.00;26.70
75500;DHT22;64076;51.466;7.260;2023-04-03T07:31:02;21.90;26.70
75500;DHT22;64076;51.466;7.260;2023-04-03T07:33:29;21.90;26.60
75500;DHT22;64076;51.466;7.260;2023-04-03T07:35:55;21.90;26.70
75500;DHT22;64076;51.466;7.260;2023-04-03T07:38:20;21.90;26.60
75500;DHT22;64076;51.466;7.260;2023-04-03T07:40:47;22.00;26.60
75500;DHT22;64076;51.466;7.260;2023-04-03T07:43:15;21.90;26.50
75500;DHT22;64076;51.466;7.260;2023-04-03T07:45:41;22.00;26.50
75500;DHT22;64076;51.466;7.260;2023-04-03T07:48:07;21.90;26.50
75500;DHT22;64076;51.466;7.260;2023-04-03T07:50:32;21.90;26.40
75500;DHT22;64076;51.466;7.260;2023-04-03T07:52:58;21.90;26.40
75500;DHT22;64076;51.466;7.260;2023-04-03T07:55:25;21.90;26.40
75500;DHT22;64076;51.466;7.260;2023-04-03T07:57:50;22.00;26.40
75500;DHT22;64076;51.466;7.260;2023-04-03T08:00:16;21.90;26.50
75500;DHT22;64076;51.466;7.260;2023-04-03T08:02:43;21.90;26.40
75500;DHT22;64076;51.466;7.260;2023-04-03T08:05:10;21.90;26.40
75500;DHT22;64076;51.466;7.260;2023-04-03T08:07:37;21.90;26.40
75500;DHT22;64076;51.466;7.260;2023-04-03T08:10:03;21.90;26.40
75500;DHT22;64076;51.466;7.260;2023-04-03T08:12:28;21.90;26.40
75500;DHT22;64076;51.466;7.260;2023-04-03T08:14:55;21.80;26.40
75500;DHT22;64076;51.466;7.260;2023-04-03T08:17:21;21.80;26.40
75500;DHT22;64076;51.466;7.260;2023-04-03T08:19:47;21.80;26.40
75500;DHT22;64076;51.466;7.260;2023-04-03T08:22:12;21.80;26.40
75500;DHT22;64076;51.466;7.260;2023-04-03T08:24:38;21.80;26.30
75500;DHT22;64076;51.466;7.260;2023-04-03T08:27:03;21.80;26.30
75500;DHT22;64076;51.466;7.260;2023-04-03T08:29:29;21.80;26.30
75500;DHT22;64076;51.466;7.260;2023-04-03T08:31:55;21.80;26.20
75500;DHT22;64076;51.466;7.260;2023-04-03T08:34:20;21.80;26.20
75500;DHT22;64076;51.466;7.260;2023-04-03T08:36:47;21.80;26.20
75500;DHT22;64076;51.466;7.260;2023-04-03T08:39:12;21.80;26.10
75500;DHT22;64076;51.466;7.260;2023-04-03T08:41:43;21.80;26.10
75500;DHT22;64076;51.466;7.260;2023-04-03T08:49:41;21.80;25.90
75500;DHT22;64076;51.466;7.260;2023-04-03T08:52:18;21.80;25.90
75500;DHT22;64076;51.466;7.260;2023-04-03T08:55:03;21.80;25.70
75500;DHT22;64076;51.466;7.260;2023-04-03T08:57:43;21.80;25.70
75500;DHT22;64076;51.466;7.260;2023-04-03T09:00:18;21.80;25.70
75500;DHT22;64076;51.466;7.260;2023-04-03T09:05:30;21.80;25.60
75500;DHT22;64076;51.466;7.260;2023-04-03T09:08:04;21.80;25.40
75500;DHT22;64076;51.466;7.260;2023-04-03T09:10:33;21.90;25.40
75500;DHT22;64076;51.466;7.260;2023-04-03T09:13:04;21.90;25.30
75500;DHT22;64076;51.466;7.260;2023-04-03T09:15:32;21.90;25.20
75500;DHT22;64076;51.466;7.260;2023-04-03T09:18:27;21.90;25.10
75500;DHT22;64076;51.466;7.260;2023-04-03T09:23:49;22.00;24.90
75500;DHT22;64076;51.466;7.260;2023-04-03T09:26:25;22.00;24.80
75500;DHT22;64076;51.466;7.260;2023-04-03T09:28:55;22.00;24.80
75500;DHT22;64076;51.466;7.260;2023-04-03T09:31:26;22.00;24.60
75500;DHT22;64076;51.466;7.260;2023-04-03T09:34:02;22.10;24.60
75500;DHT22;64076;51.466;7.260;2023-04-03T09:36:52;22.00;24.60
75500;DHT22;64076;51.466;7.260;2023-04-03T09:39:21;21.90;24.40
75500;DHT22;64076;51.466;7.260;2023-04-03T09:42:00;21.90;24.50
75500;DHT22;64076;51.466;7.260;2023-04-03T09:44:32;21.80;24.40
75500;DHT22;64076;51.466;7.260;2023-04-03T09:46:58;21.80;24.50
75500;DHT22;64076;51.466;7.260;2023-04-03T09:49:24;21.90;24.30
75500;DHT22;64076;51.466;7.260;2023-04-03T09:51:50;21.90;24.50
75500;DHT22;64076;51.466;7.260;2023-04-03T09:54:29;21.90;24.40
75500;DHT22;64076;51.466;7.260;2023-04-03T09:56:56;21.90;24.20
75500;DHT22;64076;51.466;7.260;2023-04-03T09:59:23;21.80;24.30
75500;DHT22;64076;51.466;7.260;2023-04-03T10:02:02;21.80;24.30
75500;DHT22;64076;51.466;7.260;2023-04-03T10:04:38;21.80;24.30
75500;DHT22;64076;51.466;7.260;2023-04-03T10:09:58;21.80;24.30
75500;DHT22;64076;51.466;7.260;2023-04-03T10:12:27;21.80;24.50
75500;DHT22;64076;51.466;7.260;2023-04-03T10:20:05;21.60;24.60
75500;DHT22;64076;51.466;7.260;2023-04-03T10:33:36;21.60;24.50
75500;DHT22;64076;51.466;7.260;2023-04-03T10:36:25;21.60;24.50
75500;DHT22;64076;51.466;7.260;2023-04-03T10:42:02;21.60;24.40
75500;DHT22;64076;51.466;7.260;2023-04-03T10:47:13;21.30;24.40
75500;DHT22;64076;51.466;7.260;2023-04-03T10:49:54;21.20;24.50
75500;DHT22;64076;51.466;7.260;2023-04-03T10:52:40;21.10;24.50
75500;DHT22;64076;51.466;7.260;2023-04-03T10:57:49;21.30;24.40
75500;DHT22;64076;51.466;7.260;2023-04-03T11:00:19;21.30;24.20
75500;DHT22;64076;51.466;7.260;2023-04-03T11:02:53;21.30;24.10
75500;DHT22;64076;51.466;7.260;2023-04-03T11:05:39;21.30;24.10
75500;DHT22;64076;51.466;7.260;2023-04-03T11:08:29;21.40;24.20
75500;DHT22;64076;51.466;7.260;2023-04-03T11:11:02;21.40;24.00
75500;DHT22;64076;51.466;7.260;2023-04-03T11:13:42;21.40;24.00
75500;DHT22;64076;51.466;7.260;2023-04-03T11:16:08;21.40;24.00
75500;DHT22;64076;51.466;7.260;2023-04-03T11:18:48;21.40;24.00
75500;DHT22;64076;51.466;7.260;2023-04-03T11:23:51;21.40;23.90
75500;DHT22;64076;51.466;7.260;2023-04-03T11:26:21;21.40;23.90
75500;DHT22;64076;51.466;7.260;2023-04-03T11:28:53;21.40;23.90
75500;DHT22;64076;51.466;7.260;2023-04-03T11:31:38;21.40;23.80
75500;DHT22;64076;51.466;7.260;2023-04-03T11:34:34;21.40;23.70
75500;DHT22;64076;51.466;7.260;2023-04-03T11:37:11;21.30;23.70
75500;DHT22;64076;51.466;7.260;2023-04-03T11:39:38;21.30;23.70
75500;DHT22;64076;51.466;7.260;2023-04-03T11:44:39;21.40;23.40
75500;DHT22;64076;51.466;7.260;2023-04-03T11:47:07;21.30;23.50
75500;DHT22;64076;51.466;7.260;2023-04-03T11:49:55;21.40;23.40
75500;DHT22;64076;51.466;7.260;2023-04-03T12:16:54;21.30;23.20
75500;DHT22;64076;51.466;7.260;2023-04-03T12:24:34;21.30;23.30
75500;DHT22;64076;51.466;7.260;2023-04-03T12:27:16;21.30;23.40
75500;DHT22;64076;51.466;7.260;2023-04-03T12:29:59;21.30;23.30
75500;DHT22;64076;51.466;7.260;2023-04-03T12:32:34;21.30;23.30
75500;DHT22;64076;51.466;7.260;2023-04-03T12:35:42;21.30;23.20
75500;DHT22;64076;51.466;7.260;2023-04-03T12:41:30;21.30;23.30
75500;DHT22;64076;51.466;7.260;2023-04-03T12:46:46;21.30;23.20
75500;DHT22;64076;51.466;7.260;2023-04-03T12:49:37;21.30;23.20
75500;DHT22;64076;51.466;7.260;2023-04-03T12:52:16;21.30;23.10
75500;DHT22;64076;51.466;7.260;2023-04-03T12:54:46;21.30;23.20
75500;DHT22;64076;51.466;7.260;2023-04-03T12:59:40;21.20;23.20
75500;DHT22;64076;51.466;7.260;2023-04-03T13:02:28;21.20;23.30
75500;DHT22;64076;51.466;7.260;2023-04-03T13:04:59;21.10;23.20
75500;DHT22;64076;51.466;7.260;2023-04-03T13:07:32;21.10;23.30
75500;DHT22;64076;51.466;7.260;2023-04-03T13:10:15;21.20;23.30
75500;DHT22;64076;51.466;7.260;2023-04-03T13:15:24;21.20;23.30
75500;DHT22;64076;51.466;7.260;2023-04-03T13:17:52;21.20;23.40
75500;DHT22;64076;51.466;7.260;2023-04-03T13:20:25;21.20;23.40
75500;DHT22;64076;51.466;7.260;2023-04-03T13:22:59;21.20;23.40
75500;DHT22;64076;51.466;7.260;2023-04-03T13:25:28;21.20;23.50
75500;DHT22;64076;51.466;7.260;2023-04-03T13:27:55;21.20;23.50
75500;DHT22;64076;51.466;7.260;2023-04-03T13:30:29;21.20;23.50
75500;DHT22;64076;51.466;7.260;2023-04-03T13:32:57;21.20;23.40
75500;DHT22;64076;51.466;7.260;2023-04-03T13:38:01;21.20;23.40
75500;DHT22;64076;51.466;7.260;2023-04-03T13:40:28;21.20;23.50
75500;DHT22;64076;51.466;7.260;2023-04-03T13:43:05;21.30;23.40
75500;DHT22;64076;51.466;7.260;2023-04-03T13:45:33;21.30;23.50
75500;DHT22;64076;51.466;7.260;2023-04-03T13:48:19;21.20;23.50
75500;DHT22;64076;51.466;7.260;2023-04-03T13:53:47;21.10;23.50
75500;DHT22;64076;51.466;7.260;2023-04-03T13:58:55;21.10;23.60
75500;DHT22;64076;51.466;7.260;2023-04-03T14:01:22;21.20;23.50
75500;DHT22;64076;51.466;7.260;2023-04-03T14:06:19;21.20;23.60
75500;DHT22;64076;51.466;7.260;2023-04-03T14:08:46;21.20;23.60
75500;DHT22;64076;51.466;7.260;2023-04-03T14:11:17;21.20;23.70
75500;DHT22;64076;51.466;7.260;2023-04-03T14:13:44;21.30;23.60
75500;DHT22;64076;51.466;7.260;2023-04-03T14:16:32;21.20;23.60
75500;DHT22;64076;51.466;7.260;2023-04-03T14:18:58;21.20;23.60
75500;DHT22;64076;51.466;7.260;2023-04-03T14:21:23;21.20;23.70
75500;DHT22;64076;51.466;7.260;2023-04-03T14:23:50;21.30;23.60
75500;DHT22;64076;51.466;7.260;2023-04-03T14:26:20;21.20;23.60
75500;DHT22;64076;51.466;7.260;2023-04-03T14:28:48;21.20;23.50
75500;DHT22;64076;51.466;7.260;2023-04-03T14:31:14;21.20;23.60
75500;DHT22;64076;51.466;7.260;2023-04-03T14:33:41;21.20;23.50
75500;DHT22;64076;51.466;7.260;2023-04-03T14:36:19;21.30;23.50
75500;DHT22;64076;51.466;7.260;2023-04-03T14:38:46;21.30;23.50
75500;DHT22;64076;51.466;7.260;2023-04-03T14:41:17;21.20;23.40
75500;DHT22;64076;51.466;7.260;2023-04-03T14:43:44;21.20;23.50
75500;DHT22;64076;51.466;7.260;2023-04-03T14:46:32;21.20;23.50
75500;DHT22;64076;51.466;7.260;2023-04-03T14:48:59;21.20;23.40
75500;DHT22;64076;51.466;7.260;2023-04-03T14:51:25;21.20;23.50
75500;DHT22;64076;51.466;7.260;2023-04-03T14:53:52;21.20;23.50
75500;DHT22;64076;51.466;7.260;2023-04-03T14:56:21;21.20;23.60
75500;DHT22;64076;51.466;7.260;2023-04-03T14:58:49;21.30;23.60
75500;DHT22;64076;51.466;7.260;2023-04-03T15:01:17;21.30;23.50
75500;DHT22;64076;51.466;7.260;2023-04-03T15:03:43;21.30;23.60
75500;DHT22;64076;51.466;7.260;2023-04-03T15:06:11;21.30;23.50
75500;DHT22;64076;51.466;7.260;2023-04-03T15:11:04;21.30;23.50
75500;DHT22;64076;51.466;7.260;2023-04-03T15:13:30;21.30;23.50
75500;DHT22;64076;51.466;7.260;2023-04-03T15:15:55;21.30;23.60
75500;DHT22;64076;51.466;7.260;2023-04-03T15:18:26;21.30;23.60
75500;DHT22;64076;51.466;7.260;2023-04-03T15:20:55;21.30;23.60
75500;DHT22;64076;51.466;7.260;2023-04-03T15:23:21;21.30;23.50
75500;DHT22;64076;51.466;7.260;2023-04-03T15:25:51;21.30;23.50
75500;DHT22;64076;51.466;7.260;2023-04-03T15:28:30;21.30;23.50
75500;DHT22;64076;51.466;7.260;2023-04-03T15:30:57;21.30;23.60
75500;DHT22;64076;51.466;7.260;2023-04-03T15:33:23;21.30;23.60
75500;DHT22;64076;51.466;7.260;2023-04-03T15:35:49;21.30;23.50
75500;DHT22;64076;51.466;7.260;2023-04-03T15:38:14;21.20;23.50
75500;DHT22;64076;51.466;7.260;2023-04-03T15:40:40;21.20;23.60
75500;DHT22;64076;51.466;7.260;2023-04-03T15:43:07;21.30;23.60
75500;DHT22;64076;51.466;7.260;2023-04-03T15:45:34;21.30;23.80
75500;DHT22;64076;51.466;7.260;2023-04-03T15:48:01;21.20;23.70
75500;DHT22;64076;51.466;7.260;2023-04-03T15:50:27;21.20;23.70
75500;DHT22;64076;51.466;7.260;2023-04-03T15:52:52;21.20;23.70
75500;DHT22;64076;51.466;7.260;2023-04-03T15:55:24;21.20;23.80
75500;DHT22;64076;51.466;7.260;2023-04-03T15:57:51;21.20;23.90
75500;DHT22;64076;51.466;7.260;2023-04-03T16:00:17;21.30;23.90
75500;DHT22;64076;51.466;7.260;2023-04-03T16:02:44;21.20;23.80
75500;DHT22;64076;51.466;7.260;2023-04-03T16:05:10;21.20;23.80
75500;DHT22;64076;51.466;7.260;2023-04-03T16:07:38;21.20;23.80
75500;DHT22;64076;51.466;7.260;2023-04-03T16:10:05;21.30;23.70
75500;DHT22;64076;51.466;7.260;2023-04-03T16:12:31;21.30;23.80
75500;DHT22;64076;51.466;7.260;2023-04-03T16:14:57;21.30;23.90
75500;DHT22;64076;51.466;7.260;2023-04-03T16:17:22;21.40;23.90
75500;DHT22;64076;51.466;7.260;2023-04-03T16:19:51;21.40;24.00
75500;DHT22;64076;51.466;7.260;2023-04-03T16:22:17;21.30;24.10
75500;DHT22;64076;51.466;7.260;2023-04-03T16:24:42;21.40;24.10
75500;DHT22;64076;51.466;7.260;2023-04-03T16:27:08;21.40;24.30
75500;DHT22;64076;51.466;7.260;2023-04-03T16:29:33;21.40;24.40
75500;DHT22;64076;51.466;7.260;2023-04-03T16:31:59;21.40;24.50
75500;DHT22;64076;51.466;7.260;2023-04-03T16:34:25;21.40;24.50
75500;DHT22;64076;51.466;7.260;2023-04-03T16:36:52;21.50;24.30
75500;DHT22;64076;51.466;7.260;2023-04-03T16:39:18;21.40;24.40
75500;DHT22;64076;51.466;7.260;2023-04-03T16:41:43;21.40;24.30
75500;DHT22;64076;51.466;7.260;2023-04-03T16:44:10;21.30;24.20
75500;DHT22;64076;51.466;7.260;2023-04-03T16:46:36;21.20;24.50
75500;DHT22;64076;51.466;7.260;2023-04-03T16:49:02;21.20;24.40
75500;DHT22;64076;51.466;7.260;2023-04-03T16:51:28;21.20;24.30
75500;DHT22;64076;51.466;7.260;2023-04-03T16:53:53;21.20;24.40
75500;DHT22;64076;51.466;7.260;2023-04-03T16:58:45;21.20;24.50
75500;DHT22;64076;51.466;7.260;2023-04-03T17:01:18;21.10;24.40
75500;DHT22;64076;51.466;7.260;2023-04-03T17:03:44;21.10;24.70
75500;DHT22;64076;51.466;7.260;2023-04-03T17:06:12;21.10;24.80
75500;DHT22;64076;51.466;7.260;2023-04-03T17:08:42;21.10;24.60
75500;DHT22;64076;51.466;7.260;2023-04-03T17:13:34;21.00;24.60
75500;DHT22;64076;51.466;7.260;2023-04-03T17:16:01;21.00;24.60
75500;DHT22;64076;51.466;7.260;2023-04-03T17:20:56;21.00;24.60
75500;DHT22;64076;51.466;7.260;2023-04-03T17:23:23;21.00;24.60
75500;DHT22;64076;51.466;7.260;2023-04-03T17:25:50;21.00;24.60
75500;DHT22;64076;51.466;7.260;2023-04-03T17:28:15;20.90;24.70
75500;DHT22;64076;51.466;7.260;2023-04-03T17:30:41;20.90;24.70
